createdAt,value
2022-09-14T00:00:30.179Z,18.84
2022-09-14T00:01:30.266Z,18.82
2022-09-14T00:02:30.254Z,18.81
2022-09-14T00:03:30.136Z,18.80
2022-09-14T00:04:30.095Z,18.80
2022-09-14T00:05:30.084Z,18.80
2022-09-14T00:06:30.073Z,18.78
2022-09-14T00:07:30.093Z,18.74
2022-09-14T00:08:30.045Z,18.68
2022-09-14T00:09:30.035Z,18.60
2022-09-14T00:10:30.026Z,18.53
2022-09-14T00:11:30.009Z,18.46
2022-09-14T00:12:29.996Z,18.40
2022-09-14T00:13:29.990Z,18.37
2022-09-14T00:14:29.986Z,18.35
2022-09-14T00:15:29.955Z,18.34
2022-09-14T00:16:29.980Z,18.33
2022-09-14T00:17:29.944Z,18.34
2022-09-14T00:18:29.928Z,18.34
2022-09-14T00:19:29.913Z,18.36
2022-09-14T00:20:29.891Z,18.37
2022-09-14T00:21:29.875Z,18.39
2022-09-14T00:22:29.855Z,18.41
2022-09-14T00:23:29.851Z,18.42
2022-09-14T00:24:29.855Z,18.43
2022-09-14T00:25:29.826Z,18.44
2022-09-14T00:26:29.810Z,18.45
2022-09-14T00:27:29.871Z,18.46
2022-09-14T00:28:29.781Z,18.48
2022-09-14T00:29:29.779Z,18.50
2022-09-14T00:30:29.751Z,18.52
2022-09-14T00:31:29.805Z,18.54
2022-09-14T00:32:29.726Z,18.57
2022-09-14T00:33:29.715Z,18.59
2022-09-14T00:34:29.706Z,18.61
2022-09-14T00:35:29.685Z,18.62
2022-09-14T00:36:29.692Z,18.62
2022-09-14T00:37:29.689Z,18.61
2022-09-14T00:38:29.644Z,18.59
2022-09-14T00:39:29.633Z,18.57
2022-09-14T00:40:29.675Z,18.55
2022-09-14T00:41:29.622Z,18.54
2022-09-14T00:42:29.596Z,18.53
2022-09-14T00:43:29.587Z,18.51
2022-09-14T00:44:29.572Z,18.49
2022-09-14T00:45:29.635Z,18.47
2022-09-14T00:46:29.543Z,18.45
2022-09-14T00:47:29.563Z,18.44
2022-09-14T00:48:29.511Z,18.43
2022-09-14T00:49:29.527Z,18.43
2022-09-14T00:50:29.489Z,18.43
2022-09-14T00:51:29.478Z,18.44
2022-09-14T00:52:29.464Z,18.46
2022-09-14T00:53:29.449Z,18.48
2022-09-14T00:54:29.435Z,18.50
2022-09-14T00:55:29.423Z,18.52
2022-09-14T00:56:29.409Z,18.54
2022-09-14T00:57:29.415Z,18.56
2022-09-14T00:58:29.380Z,18.57
2022-09-14T00:59:29.371Z,18.58
2022-09-14T01:00:29.382Z,18.58
2022-09-14T01:01:29.382Z,18.58
2022-09-14T01:02:29.397Z,18.58
2022-09-14T01:03:29.325Z,18.58
2022-09-14T01:04:29.301Z,18.58
2022-09-14T01:05:29.288Z,18.57
2022-09-14T01:06:29.274Z,18.56
2022-09-14T01:07:29.265Z,18.55
2022-09-14T01:08:29.265Z,18.53
2022-09-14T01:09:29.258Z,18.52
2022-09-14T01:10:29.254Z,18.51
2022-09-14T01:11:29.209Z,18.51
2022-09-14T01:12:29.201Z,18.51
2022-09-14T01:13:29.199Z,18.51
2022-09-14T01:14:29.171Z,18.51
2022-09-14T01:15:29.187Z,18.52
2022-09-14T01:16:29.331Z,18.53
2022-09-14T01:17:29.137Z,18.54
2022-09-14T01:18:29.108Z,18.55
2022-09-14T01:19:29.104Z,18.57
2022-09-14T01:20:29.101Z,18.59
2022-09-14T01:21:29.087Z,18.61
2022-09-14T01:22:29.061Z,18.62
2022-09-14T01:23:29.054Z,18.63
2022-09-14T01:24:29.051Z,18.64
2022-09-14T01:25:29.067Z,18.65
2022-09-14T01:26:29.012Z,18.66
2022-09-14T01:27:29.032Z,18.66
2022-09-14T01:28:28.976Z,18.67
2022-09-14T01:29:29.019Z,18.68
2022-09-14T01:30:28.974Z,18.68
2022-09-14T01:31:28.978Z,18.69
2022-09-14T01:32:28.930Z,18.69
2022-09-14T01:33:28.918Z,18.70
2022-09-14T01:34:28.896Z,18.70
2022-09-14T01:35:28.884Z,18.70
2022-09-14T01:36:28.925Z,18.70
2022-09-14T01:37:28.888Z,18.69
2022-09-14T01:38:28.868Z,18.69
2022-09-14T01:39:28.833Z,18.69
2022-09-14T01:40:28.927Z,18.69
2022-09-14T01:41:28.833Z,18.68
2022-09-14T01:42:28.793Z,18.68
2022-09-14T01:43:28.820Z,18.67
2022-09-14T01:44:28.772Z,18.66
2022-09-14T01:45:28.852Z,18.64
2022-09-14T01:46:28.748Z,18.62
2022-09-14T01:47:28.756Z,18.60
2022-09-14T01:48:28.715Z,18.58
2022-09-14T01:49:28.712Z,18.57
2022-09-14T01:50:28.690Z,18.57
2022-09-14T01:51:28.674Z,18.56
2022-09-14T01:52:28.698Z,18.56
2022-09-14T01:53:28.648Z,18.55
2022-09-14T01:54:28.669Z,18.55
2022-09-14T01:55:28.656Z,18.54
2022-09-14T01:56:28.636Z,18.54
2022-09-14T01:57:28.597Z,18.54
2022-09-14T01:58:28.583Z,18.54
2022-09-14T01:59:28.584Z,18.54
2022-09-14T02:00:28.557Z,18.54
2022-09-14T02:01:28.631Z,18.53
2022-09-14T02:02:28.618Z,18.53
2022-09-14T02:03:28.527Z,18.51
2022-09-14T02:04:28.499Z,18.49
2022-09-14T02:05:28.487Z,18.46
2022-09-14T02:06:28.477Z,18.43
2022-09-14T02:07:28.486Z,18.41
2022-09-14T02:08:28.446Z,18.38
2022-09-14T02:09:28.434Z,18.36
2022-09-14T02:10:28.421Z,18.34
2022-09-14T02:11:28.408Z,18.31
2022-09-14T02:12:28.395Z,18.28
2022-09-14T02:13:28.389Z,18.25
2022-09-14T02:14:28.367Z,18.22
2022-09-14T02:15:28.350Z,18.19
2022-09-14T02:16:28.437Z,18.18
2022-09-14T02:17:28.326Z,18.16
2022-09-14T02:18:28.332Z,18.15
2022-09-14T02:19:28.302Z,18.13
2022-09-14T02:20:28.318Z,18.12
2022-09-14T02:21:28.282Z,18.10
2022-09-14T02:22:28.259Z,18.09
2022-09-14T02:23:28.256Z,18.08
2022-09-14T02:24:28.252Z,18.07
2022-09-14T02:25:28.256Z,18.05
2022-09-14T02:26:28.207Z,18.04
2022-09-14T02:27:28.192Z,18.02
2022-09-14T02:28:28.187Z,18.00
2022-09-14T02:29:28.170Z,17.98
2022-09-14T02:30:28.167Z,17.98
2022-09-14T02:31:28.198Z,17.97
2022-09-14T02:32:28.176Z,17.97
2022-09-14T02:33:28.123Z,17.96
2022-09-14T02:34:28.102Z,17.94
2022-09-14T02:35:28.106Z,17.92
2022-09-14T02:36:28.078Z,17.89
2022-09-14T02:37:28.094Z,17.86
2022-09-14T02:38:28.060Z,17.83
2022-09-14T02:39:28.044Z,17.81
2022-09-14T02:40:28.079Z,17.79
2022-09-14T02:41:28.027Z,17.79
2022-09-14T02:42:28.024Z,17.79
2022-09-14T02:43:28.032Z,17.79
2022-09-14T02:44:28.028Z,17.80
2022-09-14T02:45:27.964Z,17.81
2022-09-14T02:46:28.038Z,17.82
2022-09-14T02:47:27.947Z,17.84
2022-09-14T02:48:27.958Z,17.86
2022-09-14T02:49:27.923Z,17.89
2022-09-14T02:50:27.930Z,17.92
2022-09-14T02:51:27.886Z,17.94
2022-09-14T02:52:27.876Z,17.97
2022-09-14T02:53:27.887Z,17.99
2022-09-14T02:54:27.926Z,18.01
2022-09-14T02:55:27.855Z,18.03
2022-09-14T02:56:27.830Z,18.04
2022-09-14T02:57:27.837Z,18.06
2022-09-14T02:58:27.808Z,18.08
2022-09-14T02:59:27.787Z,18.10
2022-09-14T03:00:27.830Z,18.12
2022-09-14T03:01:27.781Z,18.14
2022-09-14T03:02:27.825Z,18.16
2022-09-14T03:03:30.210Z,18.17
2022-09-14T03:04:27.721Z,18.18
2022-09-14T03:05:27.720Z,18.19
2022-09-14T03:06:27.721Z,18.19
2022-09-14T03:07:27.695Z,18.18
2022-09-14T03:08:27.673Z,18.16
2022-09-14T03:09:27.660Z,18.14
2022-09-14T03:10:27.681Z,18.11
2022-09-14T03:11:27.666Z,18.08
2022-09-14T03:12:27.667Z,18.03
2022-09-14T03:13:27.645Z,17.97
2022-09-14T03:14:27.597Z,17.91
2022-09-14T03:15:27.581Z,17.85
2022-09-14T03:16:27.649Z,17.82
2022-09-14T03:17:27.566Z,17.80
2022-09-14T03:18:27.569Z,17.79
2022-09-14T03:19:27.533Z,17.77
2022-09-14T03:20:27.562Z,17.76
2022-09-14T03:21:27.563Z,17.74
2022-09-14T03:22:27.520Z,17.73
2022-09-14T03:23:27.485Z,17.71
2022-09-14T03:24:27.480Z,17.69
2022-09-14T03:25:27.450Z,17.68
2022-09-14T03:26:27.478Z,17.67
2022-09-14T03:27:27.428Z,17.67
2022-09-14T03:28:27.429Z,17.66
2022-09-14T03:29:27.415Z,17.65
2022-09-14T03:30:27.432Z,17.64
2022-09-14T03:31:27.497Z,17.63
2022-09-14T03:32:27.372Z,17.62
2022-09-14T03:33:27.362Z,17.63
2022-09-14T03:34:27.343Z,17.63
2022-09-14T03:35:27.332Z,17.64
2022-09-14T03:36:27.326Z,17.65
2022-09-14T03:37:27.299Z,17.66
2022-09-14T03:38:27.299Z,17.68
2022-09-14T03:39:27.276Z,17.70
2022-09-14T03:40:27.468Z,17.71
2022-09-14T03:41:27.255Z,17.73
2022-09-14T03:42:27.246Z,17.74
2022-09-14T03:43:27.248Z,17.74
2022-09-14T03:44:27.222Z,17.74
2022-09-14T03:45:27.220Z,17.74
2022-09-14T03:46:27.233Z,17.73
2022-09-14T03:47:27.179Z,17.73
2022-09-14T03:48:27.170Z,17.72
2022-09-14T03:49:33.155Z,17.72
2022-09-14T03:50:27.153Z,17.71
2022-09-14T03:51:27.117Z,17.71
2022-09-14T03:52:28.692Z,17.70
2022-09-14T03:53:27.093Z,17.70
2022-09-14T03:54:27.087Z,17.69
2022-09-14T03:55:27.090Z,17.68
2022-09-14T03:56:27.083Z,17.68
2022-09-14T03:57:27.051Z,17.68
2022-09-14T03:58:27.058Z,17.67
2022-09-14T03:59:27.027Z,17.67
2022-09-14T04:00:27.039Z,17.67
2022-09-14T04:01:27.035Z,17.67
2022-09-14T04:02:27.060Z,17.67
2022-09-14T04:03:26.983Z,17.66
2022-09-14T04:04:26.967Z,17.65
2022-09-14T04:05:26.939Z,17.64
2022-09-14T04:06:26.932Z,17.63
2022-09-14T04:07:26.953Z,17.62
2022-09-14T04:08:26.917Z,17.61
2022-09-14T04:09:26.899Z,17.61
2022-09-14T04:10:26.896Z,17.61
2022-09-14T04:11:26.875Z,17.61
2022-09-14T04:12:26.853Z,17.61
2022-09-14T04:13:26.838Z,17.61
2022-09-14T04:14:26.825Z,17.62
2022-09-14T04:15:26.835Z,17.63
2022-09-14T04:16:26.955Z,17.64
2022-09-14T04:17:26.806Z,17.65
2022-09-14T04:18:26.814Z,17.67
2022-09-14T04:19:26.767Z,17.69
2022-09-14T04:20:26.751Z,17.71
2022-09-14T04:21:26.737Z,17.74
2022-09-14T04:22:26.728Z,17.76
2022-09-14T04:23:26.759Z,17.79
2022-09-14T04:24:30.384Z,17.81
2022-09-14T04:25:26.701Z,17.83
2022-09-14T04:26:26.691Z,17.84
2022-09-14T04:27:26.660Z,17.86
2022-09-14T04:28:26.680Z,17.87
2022-09-14T04:29:26.626Z,17.88
2022-09-14T04:30:26.626Z,17.88
2022-09-14T04:31:26.703Z,17.88
2022-09-14T04:32:29.618Z,17.88
2022-09-14T04:33:26.581Z,17.88
2022-09-14T04:34:26.612Z,17.87
2022-09-14T04:35:26.550Z,17.86
2022-09-14T04:36:26.545Z,17.85
2022-09-14T04:37:26.562Z,17.85
2022-09-14T04:38:26.575Z,17.85
2022-09-14T04:39:26.523Z,17.85
2022-09-14T04:40:26.550Z,17.85
2022-09-14T04:41:26.491Z,17.86
2022-09-14T04:42:26.489Z,17.86
2022-09-14T04:43:26.448Z,17.86
2022-09-14T04:44:26.464Z,17.85
2022-09-14T04:45:26.458Z,17.85
2022-09-14T04:46:26.446Z,17.84
2022-09-14T04:47:26.403Z,17.84
2022-09-14T04:48:26.417Z,17.83
2022-09-14T04:49:26.390Z,17.83
2022-09-14T04:50:26.364Z,17.83
2022-09-14T04:51:26.348Z,17.83
2022-09-14T04:52:26.358Z,17.84
2022-09-14T04:53:26.322Z,17.85
2022-09-14T04:54:26.337Z,17.87
2022-09-14T04:55:26.301Z,17.89
2022-09-14T04:56:26.291Z,17.90
2022-09-14T04:57:26.266Z,17.92
2022-09-14T04:58:26.271Z,17.94
2022-09-14T04:59:26.248Z,17.95
2022-09-14T05:00:26.248Z,17.96
2022-09-14T05:01:26.255Z,17.96
2022-09-14T05:02:26.275Z,17.97
2022-09-14T05:03:26.190Z,17.98
2022-09-14T05:04:26.190Z,17.99
2022-09-14T05:05:26.235Z,18.00
2022-09-14T05:06:26.166Z,18.02
2022-09-14T05:07:26.163Z,18.03
2022-09-14T05:08:26.135Z,18.04
2022-09-14T05:09:26.129Z,18.06
2022-09-14T05:10:26.112Z,18.07
2022-09-14T05:11:26.123Z,18.09
2022-09-14T05:12:26.080Z,18.10
2022-09-14T05:13:26.062Z,18.11
2022-09-14T05:14:26.086Z,18.12
2022-09-14T05:15:26.038Z,18.12
2022-09-14T05:16:26.090Z,18.13
2022-09-14T05:17:26.021Z,18.13
2022-09-14T05:18:26.015Z,18.14
2022-09-14T05:19:26.007Z,18.15
2022-09-14T05:20:26.022Z,18.16
2022-09-14T05:21:25.980Z,18.18
2022-09-14T05:22:25.965Z,18.19
2022-09-14T05:23:26.066Z,18.20
2022-09-14T05:24:25.929Z,18.22
2022-09-14T05:25:25.913Z,18.25
2022-09-14T05:26:25.918Z,18.27
2022-09-14T05:27:25.897Z,18.30
2022-09-14T05:28:25.885Z,18.32
2022-09-14T05:29:25.928Z,18.35
2022-09-14T05:30:25.857Z,18.37
2022-09-14T05:31:25.957Z,18.40
2022-09-14T05:32:25.867Z,18.43
2022-09-14T05:33:25.816Z,18.46
2022-09-14T05:34:25.839Z,18.49
2022-09-14T05:35:25.819Z,18.51
2022-09-14T05:36:25.806Z,18.54
2022-09-14T05:37:25.763Z,18.56
2022-09-14T05:38:25.752Z,18.59
2022-09-14T05:39:25.745Z,18.61
2022-09-14T05:40:25.775Z,18.64
2022-09-14T05:41:25.731Z,18.66
2022-09-14T05:42:25.715Z,18.68
2022-09-14T05:43:25.692Z,18.70
2022-09-14T05:44:25.674Z,18.73
2022-09-14T05:45:25.661Z,18.75
2022-09-14T05:46:26.442Z,18.77
2022-09-14T05:47:25.654Z,18.79
2022-09-14T05:48:25.627Z,18.81
2022-09-14T05:49:25.616Z,18.83
2022-09-14T05:50:25.606Z,18.85
2022-09-14T05:51:25.601Z,18.87
2022-09-14T05:52:25.623Z,18.90
2022-09-14T05:53:25.566Z,18.92
2022-09-14T05:54:25.567Z,18.94
2022-09-14T05:55:25.539Z,18.96
2022-09-14T05:56:25.545Z,18.99
2022-09-14T05:57:25.517Z,19.01
2022-09-14T05:58:25.500Z,19.03
2022-09-14T05:59:26.305Z,19.05
2022-09-14T06:00:25.527Z,19.07
2022-09-14T06:01:25.502Z,19.10
2022-09-14T06:02:25.516Z,19.12
2022-09-14T06:03:25.434Z,19.15
2022-09-14T06:04:25.433Z,19.17
2022-09-14T06:05:25.464Z,19.20
2022-09-14T06:06:25.407Z,19.22
2022-09-14T06:07:25.417Z,19.24
2022-09-14T06:08:25.364Z,19.27
2022-09-14T06:09:26.585Z,19.28
2022-09-14T06:10:25.344Z,19.30
2022-09-14T06:11:25.425Z,19.32
2022-09-14T06:12:25.352Z,19.33
2022-09-14T06:13:25.327Z,19.35
2022-09-14T06:14:25.317Z,19.36
2022-09-14T06:15:25.273Z,19.38
2022-09-14T06:16:25.266Z,19.40
2022-09-14T06:17:25.266Z,19.42
2022-09-14T06:18:25.236Z,19.44
2022-09-14T06:19:25.219Z,19.45
2022-09-14T06:20:25.200Z,19.46
2022-09-14T06:21:25.203Z,19.46
2022-09-14T06:22:25.183Z,19.47
2022-09-14T06:23:25.170Z,19.47
2022-09-14T06:24:25.160Z,19.47
2022-09-14T06:25:25.139Z,19.47
2022-09-14T06:26:25.150Z,19.47
2022-09-14T06:27:25.118Z,19.46
2022-09-14T06:28:25.101Z,19.46
2022-09-14T06:29:25.162Z,19.45
2022-09-14T06:30:25.083Z,19.45
2022-09-14T06:31:25.076Z,19.45
2022-09-14T06:32:25.078Z,19.45
2022-09-14T06:33:25.038Z,19.45
2022-09-14T06:34:25.037Z,19.45
2022-09-14T06:35:25.123Z,19.45
2022-09-14T06:36:25.016Z,19.46
2022-09-14T06:37:25.020Z,19.46
2022-09-14T06:38:24.975Z,19.46
2022-09-14T06:39:24.968Z,19.47
2022-09-14T06:40:25.029Z,19.47
2022-09-14T06:41:24.935Z,19.48
2022-09-14T06:42:24.944Z,19.48
2022-09-14T06:43:24.906Z,19.49
2022-09-14T06:44:24.909Z,19.50
2022-09-14T06:45:24.896Z,19.50
2022-09-14T06:46:24.894Z,19.51
2022-09-14T06:47:24.885Z,19.51
2022-09-14T06:48:24.851Z,19.51
2022-09-14T06:49:24.836Z,19.51
2022-09-14T06:50:24.890Z,19.51
2022-09-14T06:51:24.802Z,19.51
2022-09-14T06:52:24.808Z,19.51
2022-09-14T06:53:24.813Z,19.51
2022-09-14T06:54:24.781Z,19.50
2022-09-14T06:55:24.749Z,19.50
2022-09-14T06:56:24.991Z,19.48
2022-09-14T06:57:24.742Z,19.46
2022-09-14T06:58:24.705Z,19.42
2022-09-14T06:59:24.725Z,19.38
2022-09-14T07:00:24.721Z,19.34
2022-09-14T07:01:24.696Z,19.29
2022-09-14T07:02:24.713Z,19.25
2022-09-14T07:03:24.652Z,19.21
2022-09-14T07:04:24.633Z,19.17
2022-09-14T07:05:24.620Z,19.14
2022-09-14T07:06:24.603Z,19.11
2022-09-14T07:07:24.598Z,19.09
2022-09-14T07:08:24.578Z,19.07
2022-09-14T07:09:24.568Z,19.06
2022-09-14T07:10:24.542Z,19.04
2022-09-14T07:11:24.538Z,19.02
2022-09-14T07:12:24.550Z,19.01
2022-09-14T07:13:24.538Z,19.00
2022-09-14T07:14:24.509Z,18.99
2022-09-14T07:15:24.479Z,18.99
2022-09-14T07:16:24.469Z,18.99
2022-09-14T07:17:24.473Z,18.99
2022-09-14T07:18:24.454Z,19.00
2022-09-14T07:19:24.442Z,19.00
2022-09-14T07:20:24.555Z,19.00
2022-09-14T07:21:24.400Z,19.01
2022-09-14T07:22:24.381Z,19.01
2022-09-14T07:23:24.381Z,19.01
2022-09-14T07:24:24.373Z,19.02
2022-09-14T07:25:24.372Z,19.03
2022-09-14T07:26:24.392Z,19.04
2022-09-14T07:27:24.366Z,19.05
2022-09-14T07:28:24.314Z,19.06
2022-09-14T07:29:25.221Z,19.06
2022-09-14T07:30:24.273Z,19.07
2022-09-14T07:31:25.048Z,19.08
2022-09-14T07:32:24.309Z,19.08
2022-09-14T07:33:24.241Z,19.09
2022-09-14T07:34:24.224Z,19.09
2022-09-14T07:35:24.212Z,19.10
2022-09-14T07:36:24.195Z,19.11
2022-09-14T07:37:24.238Z,19.12
2022-09-14T07:38:41.733Z,19.13
2022-09-14T07:39:24.171Z,19.14
2022-09-14T07:40:24.212Z,19.15
2022-09-14T07:41:24.183Z,19.17
2022-09-14T07:42:24.140Z,19.19
2022-09-14T07:43:24.124Z,19.20
2022-09-14T07:44:24.732Z,19.22
2022-09-14T07:45:24.274Z,19.24
2022-09-14T07:46:24.224Z,19.26
2022-09-14T07:47:24.065Z,19.29
2022-09-14T07:48:24.044Z,19.31
2022-09-14T07:49:24.030Z,19.33
2022-09-14T07:50:24.019Z,19.36
2022-09-14T07:51:24.004Z,19.40
2022-09-14T07:52:24.225Z,19.43
2022-09-14T07:53:23.981Z,19.47
2022-09-14T07:54:23.967Z,19.51
2022-09-14T07:55:23.965Z,19.56
2022-09-14T07:56:24.619Z,19.60
2022-09-14T07:57:45.541Z,19.64
2022-09-14T07:58:23.940Z,19.68
2022-09-14T07:59:35.600Z,19.73
2022-09-14T08:00:23.920Z,19.78
2022-09-14T08:01:23.977Z,19.83
2022-09-14T08:02:23.931Z,19.88
2022-09-14T08:03:23.842Z,19.93
2022-09-14T08:04:23.836Z,19.97
2022-09-14T08:05:23.827Z,20.02
2022-09-14T08:06:23.806Z,20.06
2022-09-14T08:07:23.802Z,20.11
2022-09-14T08:08:23.784Z,20.16
2022-09-14T08:09:23.760Z,20.21
2022-09-14T08:10:23.863Z,20.25
2022-09-14T08:11:23.764Z,20.29
2022-09-14T08:12:23.749Z,20.33
2022-09-14T08:13:23.769Z,20.37
2022-09-14T08:14:23.766Z,20.42
2022-09-14T08:15:28.248Z,20.46
2022-09-14T08:16:23.770Z,20.52
2022-09-14T08:17:23.679Z,20.58
2022-09-14T08:18:23.657Z,20.65
2022-09-14T08:19:23.651Z,20.72
2022-09-14T08:20:23.629Z,20.78
2022-09-14T08:21:23.620Z,20.84
2022-09-14T08:22:23.601Z,20.89
2022-09-14T08:23:23.584Z,20.93
2022-09-14T08:24:23.602Z,20.97
2022-09-14T08:25:23.556Z,21.00
2022-09-14T08:26:23.540Z,21.03
2022-09-14T08:27:23.529Z,21.05
2022-09-14T08:28:23.517Z,21.07
2022-09-14T08:29:23.563Z,21.08
2022-09-14T08:30:23.504Z,21.10
2022-09-14T08:31:23.538Z,21.11
2022-09-14T08:32:23.473Z,21.13
2022-09-14T08:33:23.452Z,21.14
2022-09-14T08:34:23.473Z,21.15
2022-09-14T08:35:40.783Z,21.17
2022-09-14T08:36:23.418Z,21.18
2022-09-14T08:37:23.418Z,21.19
2022-09-14T08:38:23.402Z,21.20
2022-09-14T08:39:23.373Z,21.20
2022-09-14T08:40:23.443Z,21.20
2022-09-14T08:41:23.367Z,21.21
2022-09-14T08:42:23.344Z,21.22
2022-09-14T08:43:23.402Z,21.23
2022-09-14T08:44:23.351Z,21.24
2022-09-14T08:45:23.360Z,21.26
2022-09-14T08:46:23.406Z,21.28
2022-09-14T08:47:23.316Z,21.29
2022-09-14T08:48:23.273Z,21.31
2022-09-14T08:49:23.283Z,21.33
2022-09-14T08:50:23.246Z,21.35
2022-09-14T08:51:23.242Z,21.37
2022-09-14T08:52:23.255Z,21.38
2022-09-14T08:53:23.261Z,21.40
2022-09-14T08:54:23.183Z,21.42
2022-09-14T08:55:23.183Z,21.45
2022-09-14T08:56:23.153Z,21.48
2022-09-14T08:57:23.167Z,21.52
2022-09-14T08:58:23.131Z,21.55
2022-09-14T08:59:23.282Z,21.60
2022-09-14T09:00:23.124Z,21.65
2022-09-14T09:01:23.174Z,21.70
2022-09-14T09:02:23.076Z,21.74
2022-09-14T09:03:23.230Z,21.78
2022-09-14T09:04:23.077Z,21.82
2022-09-14T09:05:23.149Z,21.86
2022-09-14T09:06:23.030Z,21.89
2022-09-14T09:07:23.018Z,21.94
2022-09-14T09:08:23.064Z,22.00
2022-09-14T09:09:23.020Z,22.07
2022-09-14T09:10:22.987Z,22.13
2022-09-14T09:11:22.975Z,22.17
2022-09-14T09:12:22.970Z,22.20
2022-09-14T09:13:22.970Z,22.22
2022-09-14T09:14:22.924Z,22.24
2022-09-14T09:15:22.914Z,22.24
2022-09-14T09:16:22.970Z,22.25
2022-09-14T09:17:22.881Z,22.26
2022-09-14T09:18:22.871Z,22.26
2022-09-14T09:19:26.727Z,22.26
2022-09-14T09:20:22.880Z,22.27
2022-09-14T09:21:22.903Z,22.28
2022-09-14T09:22:22.834Z,22.28
2022-09-14T09:23:22.809Z,22.29
2022-09-14T09:24:22.798Z,22.30
2022-09-14T09:25:22.780Z,22.31
2022-09-14T09:26:22.825Z,22.35
2022-09-14T09:27:22.806Z,22.40
2022-09-14T09:28:22.778Z,22.46
2022-09-14T09:29:22.759Z,22.51
2022-09-14T09:30:22.721Z,22.56
2022-09-14T09:31:22.814Z,22.61
2022-09-14T09:32:22.687Z,22.65
2022-09-14T09:33:22.727Z,22.69
2022-09-14T09:34:22.729Z,22.74
2022-09-14T09:35:22.661Z,22.78
2022-09-14T09:36:22.648Z,22.81
2022-09-14T09:37:22.633Z,22.83
2022-09-14T09:38:22.618Z,22.84
2022-09-14T09:39:22.604Z,22.84
2022-09-14T09:40:22.650Z,22.83
2022-09-14T09:41:22.576Z,22.83
2022-09-14T09:42:22.591Z,22.84
2022-09-14T09:43:45.425Z,22.84
2022-09-14T09:44:22.585Z,22.84
2022-09-14T09:45:22.532Z,22.84
2022-09-14T09:46:22.547Z,22.84
2022-09-14T09:47:22.526Z,22.85
2022-09-14T09:48:22.548Z,22.86
2022-09-14T09:49:22.483Z,22.88
2022-09-14T09:50:22.474Z,22.89
2022-09-14T09:51:28.477Z,22.89
2022-09-14T09:52:22.675Z,22.89
2022-09-14T09:53:22.424Z,22.88
2022-09-14T09:54:22.398Z,22.88
2022-09-14T09:55:22.401Z,22.88
2022-09-14T09:56:23.244Z,22.88
2022-09-14T09:57:22.394Z,22.89
2022-09-14T09:58:22.367Z,22.89
2022-09-14T09:59:22.351Z,22.89
2022-09-14T10:00:22.332Z,22.89
2022-09-14T10:01:22.346Z,22.88
2022-09-14T10:02:22.335Z,22.88
2022-09-14T10:03:22.297Z,22.87
2022-09-14T10:04:22.271Z,22.87
2022-09-14T10:05:22.267Z,22.86
2022-09-14T10:06:22.251Z,22.85
2022-09-14T10:07:22.243Z,22.85
2022-09-14T10:08:22.237Z,22.84
2022-09-14T10:09:22.226Z,22.83
2022-09-14T10:10:22.258Z,22.82
2022-09-14T10:11:22.208Z,22.81
2022-09-14T10:12:22.168Z,22.81
2022-09-14T10:13:22.180Z,22.82
2022-09-14T10:14:22.163Z,22.83
2022-09-14T10:15:22.158Z,22.84
2022-09-14T10:16:22.157Z,22.87
2022-09-14T10:17:22.128Z,22.90
2022-09-14T10:18:22.097Z,22.93
2022-09-14T10:19:22.078Z,22.96
2022-09-14T10:20:22.068Z,22.98
2022-09-14T10:21:22.067Z,23.01
2022-09-14T10:22:26.386Z,23.03
2022-09-14T10:23:22.041Z,23.06
2022-09-14T10:24:22.034Z,23.07
2022-09-14T10:25:21.999Z,23.07
2022-09-14T10:26:22.004Z,23.07
2022-09-14T10:27:21.976Z,23.07
2022-09-14T10:28:21.975Z,23.08
2022-09-14T10:29:21.961Z,23.09
2022-09-14T10:30:21.945Z,23.10
2022-09-14T10:31:21.972Z,23.10
2022-09-14T10:32:21.962Z,23.11
2022-09-14T10:33:21.896Z,23.11
2022-09-14T10:34:21.903Z,23.11
2022-09-14T10:35:21.890Z,23.10
2022-09-14T10:36:21.885Z,23.10
2022-09-14T10:37:21.849Z,23.10
2022-09-14T10:38:21.836Z,23.11
2022-09-14T10:39:25.884Z,23.10
2022-09-14T10:40:21.966Z,23.10
2022-09-14T10:41:21.814Z,23.09
2022-09-14T10:42:21.793Z,23.09
2022-09-14T10:43:21.787Z,23.09
2022-09-14T10:44:21.787Z,23.08
2022-09-14T10:45:21.773Z,23.08
2022-09-14T10:46:21.797Z,23.08
2022-09-14T10:47:21.721Z,23.07
2022-09-14T10:48:21.714Z,23.08
2022-09-14T10:49:21.694Z,23.08
2022-09-14T10:50:21.707Z,23.09
2022-09-14T10:51:21.669Z,23.10
2022-09-14T10:52:21.681Z,23.10
2022-09-14T10:53:21.653Z,23.11
2022-09-14T10:54:21.638Z,23.11
2022-09-14T10:55:21.626Z,23.12
2022-09-14T10:56:21.617Z,23.12
2022-09-14T10:57:21.608Z,23.12
2022-09-14T10:58:24.419Z,23.12
2022-09-14T10:59:21.578Z,23.11
2022-09-14T11:00:21.556Z,23.11
2022-09-14T11:01:21.629Z,23.11
2022-09-14T11:02:21.738Z,23.11
2022-09-14T11:03:21.515Z,23.11
2022-09-14T11:04:21.503Z,23.11
2022-09-14T11:05:21.495Z,23.11
2022-09-14T11:06:21.478Z,23.11
2022-09-14T11:07:21.476Z,23.11
2022-09-14T11:08:21.455Z,23.12
2022-09-14T11:09:21.441Z,23.13
2022-09-14T11:10:21.440Z,23.14
2022-09-14T11:11:21.428Z,23.16
2022-09-14T11:12:21.409Z,23.17
2022-09-14T11:13:21.391Z,23.18
2022-09-14T11:14:21.385Z,23.19
2022-09-14T11:15:21.359Z,23.21
2022-09-14T11:16:21.481Z,23.24
2022-09-14T11:17:21.339Z,23.26
2022-09-14T11:18:21.333Z,23.28
2022-09-14T11:19:21.318Z,23.30
2022-09-14T11:20:21.303Z,23.31
2022-09-14T11:21:21.294Z,23.32
2022-09-14T11:22:21.309Z,23.33
2022-09-14T11:23:21.264Z,23.34
2022-09-14T11:24:21.261Z,23.35
2022-09-14T11:25:21.238Z,23.36
2022-09-14T11:26:21.228Z,23.37
2022-09-14T11:27:21.229Z,23.38
2022-09-14T11:28:21.211Z,23.39
2022-09-14T11:29:21.185Z,23.39
2022-09-14T11:30:21.190Z,23.40
2022-09-14T11:31:21.280Z,23.41
2022-09-14T11:32:22.219Z,23.43
2022-09-14T11:33:21.142Z,23.44
2022-09-14T11:34:21.145Z,23.47
2022-09-14T11:35:21.114Z,23.50
2022-09-14T11:36:21.102Z,23.53
2022-09-14T11:37:21.100Z,23.56
2022-09-14T11:38:21.074Z,23.59
2022-09-14T11:39:21.067Z,23.61
2022-09-14T11:40:21.138Z,23.64
2022-09-14T11:41:21.034Z,23.68
2022-09-14T11:42:21.023Z,23.71
2022-09-14T11:43:21.007Z,23.75
2022-09-14T11:44:21.007Z,23.79
2022-09-14T11:45:20.989Z,23.84
2022-09-14T11:46:21.075Z,23.89
2022-09-14T11:47:20.963Z,23.92
2022-09-14T11:48:41.845Z,23.95
2022-09-14T11:49:20.959Z,23.98
2022-09-14T11:50:20.919Z,23.99
2022-09-14T11:51:20.917Z,24.01
2022-09-14T11:52:20.936Z,24.01
2022-09-14T11:53:20.893Z,24.02
2022-09-14T11:54:20.873Z,24.03
2022-09-14T11:55:20.857Z,24.04
2022-09-14T11:56:20.858Z,24.07
2022-09-14T11:57:20.830Z,24.10
2022-09-14T11:58:20.838Z,24.13
2022-09-14T11:59:20.813Z,24.17
2022-09-14T12:00:20.797Z,24.21
2022-09-14T12:01:20.784Z,24.24
2022-09-14T12:02:20.839Z,24.27
2022-09-14T12:03:20.843Z,24.30
2022-09-14T12:04:20.899Z,24.32
2022-09-14T12:05:20.732Z,24.33
2022-09-14T12:06:20.727Z,24.34
2022-09-14T12:07:20.704Z,24.34
2022-09-14T12:08:20.699Z,24.35
2022-09-14T12:09:20.689Z,24.35
2022-09-14T12:10:20.676Z,24.35
2022-09-14T12:11:20.656Z,24.37
2022-09-14T12:12:20.656Z,24.38
2022-09-14T12:13:20.626Z,24.40
2022-09-14T12:14:20.632Z,24.42
2022-09-14T12:15:20.599Z,24.45
2022-09-14T12:16:20.688Z,24.48
2022-09-14T12:17:39.728Z,24.51
2022-09-14T12:18:20.571Z,24.54
2022-09-14T12:19:20.551Z,24.56
2022-09-14T12:20:20.572Z,24.58
2022-09-14T12:21:20.535Z,24.58
2022-09-14T12:22:20.534Z,24.59
2022-09-14T12:23:20.499Z,24.59
2022-09-14T12:24:20.497Z,24.59
2022-09-14T12:25:20.544Z,24.60
2022-09-14T12:26:20.495Z,24.61
2022-09-14T12:27:20.446Z,24.62
2022-09-14T12:28:20.439Z,24.63
2022-09-14T12:29:20.418Z,24.63
2022-09-14T12:30:20.427Z,24.64
2022-09-14T12:31:20.463Z,24.64
2022-09-14T12:32:20.391Z,24.65
2022-09-14T12:33:20.382Z,24.65
2022-09-14T12:34:20.360Z,24.66
2022-09-14T12:35:20.343Z,24.67
2022-09-14T12:36:20.330Z,24.68
2022-09-14T12:37:20.327Z,24.69
2022-09-14T12:38:20.306Z,24.71
2022-09-14T12:39:20.290Z,24.73
2022-09-14T12:40:20.420Z,24.76
2022-09-14T12:41:20.269Z,24.79
2022-09-14T12:42:24.669Z,24.81
2022-09-14T12:43:20.247Z,24.83
2022-09-14T12:44:20.225Z,24.83
2022-09-14T12:45:20.227Z,24.82
2022-09-14T12:46:20.379Z,24.82
2022-09-14T12:47:20.206Z,24.81
2022-09-14T12:48:20.196Z,24.80
2022-09-14T12:49:20.157Z,24.78
2022-09-14T12:50:20.152Z,24.76
2022-09-14T12:51:20.135Z,24.74
2022-09-14T12:52:20.122Z,24.71